Argenta, Illinois
Current Conditions -  °F | °C
As of 7:54 AM on Wednesday 28 Jan 2015 (Local Time) from KDEC Reporting Station
Clear Clear  
Wind Chill: 15°   Ceiling: Unl
Heat Index: 25°   Visibility: 8mi
Dew Point: 18°   Wind: 10mph
Humidity: 75%   Direction: 150°SSE
Pressure: 30.28"   Gusts: NA
Location:  39.98°N, 88.82°W
Report Text: KDEC 281354Z 15009KT 8SM CLR M04/M08 A3028 RMK AO2 SLP262 T10391078
Loading
Personal Weather Stations






























Interactive Weather Map New forecast layout! Learn more

10-Day Weather Forecast

Advertisements
Track Severe Weather on mobile